sensor_id;sensor_type;location;lat;lon;timestamp;pressure;altitude;pressure_sealevel;temperature;humidity
38558;BME280;24333;42.626;23.308;2023-07-31T00:00:15;68960.75;;;-148.95;100.00
38558;BME280;24333;42.626;23.308;2023-07-31T00:05:16;68960.75;;;-148.95;100.00
38558;BME280;24333;42.626;23.308;2023-07-31T00:07:42;68960.75;;;-148.95;100.00
38558;BME280;24333;42.626;23.308;2023-07-31T00:10:11;68958.69;;;-148.95;100.00
38558;BME280;24333;42.626;23.308;2023-07-31T02:43:00;68927.56;;;-148.95;100.00
38558;BME280;24333;42.626;23.308;2023-07-31T02:45:25;68911.00;;;-148.95;100.00
38558;BME280;24333;42.626;23.308;2023-07-31T02:47:51;68915.13;;;-148.95;100.00
38558;BME280;24333;42.626;23.308;2023-07-31T02:50:16;68911.00;;;-148.95;100.00
38558;BME280;24333;42.626;23.308;2023-07-31T02:55:13;68908.91;;;-148.95;100.00
38558;BME280;24333;42.626;23.308;2023-07-31T02:57:39;68919.28;;;-148.95;100.00
38558;BME280;24333;42.626;23.308;2023-07-31T03:02:43;68915.13;;;-148.95;100.00
38558;BME280;24333;42.626;23.308;2023-07-31T03:05:09;68917.22;;;-148.95;100.00
38558;BME280;24333;42.626;23.308;2023-07-31T03:10:10;68913.06;;;-148.95;100.00
38558;BME280;24333;42.626;23.308;2023-07-31T03:12:43;68911.00;;;-148.95;100.00
38558;BME280;24333;42.626;23.308;2023-07-31T03:15:11;68908.91;;;-148.95;100.00
38558;BME280;24333;42.626;23.308;2023-07-31T03:17:37;68904.75;;;-148.95;100.00
38558;BME280;24333;42.626;23.308;2023-07-31T03:53:40;68911.00;;;-148.95;100.00
38558;BME280;24333;42.626;23.308;2023-07-31T03:56:23;68913.06;;;-148.95;100.00
38558;BME280;24333;42.626;23.308;2023-07-31T03:58:57;68906.84;;;-148.95;100.00
38558;BME280;24333;42.626;23.308;2023-07-31T04:01:28;68923.44;;;-148.95;100.00
38558;BME280;24333;42.626;23.308;2023-07-31T05:51:31;68740.94;;;-148.95;85.49
38558;BME280;24333;42.626;23.308;2023-07-31T05:53:57;68743.00;;;-148.95;85.17
38558;BME280;24333;42.626;23.308;2023-07-31T05:56:22;68740.94;;;-148.95;85.73
38558;BME280;24333;42.626;23.308;2023-07-31T05:58:48;68740.94;;;-148.95;84.38
38558;BME280;24333;42.626;23.308;2023-07-31T06:01:16;68736.78;;;-148.95;84.60
38558;BME280;24333;42.626;23.308;2023-07-31T06:03:42;68728.50;;;-148.95;84.34
38558;BME280;24333;42.626;23.308;2023-07-31T06:06:07;68732.63;;;-148.95;83.70
38558;BME280;24333;42.626;23.308;2023-07-31T06:08:33;68722.28;;;-148.95;83.10
38558;BME280;24333;42.626;23.308;2023-07-31T06:11:02;68713.97;;;-148.95;82.80
38558;BME280;24333;42.626;23.308;2023-07-31T06:13:29;68716.06;;;-148.95;79.54
38558;BME280;24333;42.626;23.308;2023-07-31T06:15:58;68709.84;;;-148.95;78.87
38558;BME280;24333;42.626;23.308;2023-07-31T06:18:25;68709.84;;;-148.95;76.37
38558;BME280;24333;42.626;23.308;2023-07-31T06:20:51;68703.59;;;-148.95;76.32
38558;BME280;24333;42.626;23.308;2023-07-31T06:23:19;68703.59;;;-148.95;75.59
38558;BME280;24333;42.626;23.308;2023-07-31T06:25:45;68718.13;;;-148.95;77.67
38558;BME280;24333;42.626;23.308;2023-07-31T06:28:11;68701.53;;;-148.95;77.65
38558;BME280;24333;42.626;23.308;2023-07-31T06:30:38;68684.94;;;-148.95;79.16
38558;BME280;24333;42.626;23.308;2023-07-31T06:33:04;68653.84;;;-148.95;73.54
38558;BME280;24333;42.626;23.308;2023-07-31T06:35:30;68626.88;;;-148.95;70.53
38558;BME280;24333;42.626;23.308;2023-07-31T06:37:56;68608.22;;;-148.95;68.12
38558;BME280;24333;42.626;23.308;2023-07-31T06:40:22;68604.06;;;-148.95;67.50
38558;BME280;24333;42.626;23.308;2023-07-31T06:42:49;68628.97;;;-148.95;68.36
38558;BME280;24333;42.626;23.308;2023-07-31T06:45:14;68641.41;;;-148.95;69.43
38558;BME280;24333;42.626;23.308;2023-07-31T06:47:40;68647.63;;;-148.95;66.74
38558;BME280;24333;42.626;23.308;2023-07-31T06:50:06;68645.53;;;-148.95;68.53
38558;BME280;24333;42.626;23.308;2023-07-31T06:55:52;68691.16;;;-148.95;69.50
38558;BME280;24333;42.626;23.308;2023-07-31T06:58:18;68703.59;;;-148.95;71.32
38558;BME280;24333;42.626;23.308;2023-07-31T07:00:43;68720.19;;;-148.95;72.06
38558;BME280;24333;42.626;23.308;2023-07-31T07:03:09;68732.63;;;-148.95;74.21
38558;BME280;24333;42.626;23.308;2023-07-31T07:05:35;68709.84;;;-148.95;70.51
38558;BME280;24333;42.626;23.308;2023-07-31T07:08:00;68703.59;;;-148.95;69.57
38558;BME280;24333;42.626;23.308;2023-07-31T07:10:26;68691.16;;;-148.95;70.86
38558;BME280;24333;42.626;23.308;2023-07-31T07:13:02;68680.78;;;-148.95;69.90
38558;BME280;24333;42.626;23.308;2023-07-31T07:15:28;68684.94;;;-148.95;70.81
38558;BME280;24333;42.626;23.308;2023-07-31T07:17:54;68676.66;;;-148.95;71.77
38558;BME280;24333;42.626;23.308;2023-07-31T07:20:20;68651.75;;;-148.95;69.92
38558;BME280;24333;42.626;23.308;2023-07-31T07:22:45;68670.44;;;-148.95;68.68
38558;BME280;24333;42.626;23.308;2023-07-31T07:25:11;68662.13;;;-148.95;68.13
38558;BME280;24333;42.626;23.308;2023-07-31T07:27:37;68653.84;;;-148.95;69.53
38558;BME280;24333;42.626;23.308;2023-07-31T07:30:03;68645.53;;;-148.95;68.23
38558;BME280;24333;42.626;23.308;2023-07-31T07:32:29;68662.13;;;-148.95;65.65
38558;BME280;24333;42.626;23.308;2023-07-31T07:34:55;68649.69;;;-148.95;67.32
38558;BME280;24333;42.626;23.308;2023-07-31T07:37:21;68649.69;;;-148.95;65.62
38558;BME280;24333;42.626;23.308;2023-07-31T07:40:02;68658.00;;;-148.95;67.76
38558;BME280;24333;42.626;23.308;2023-07-31T07:42:27;68628.97;;;-148.95;68.25
38558;BME280;24333;42.626;23.308;2023-07-31T07:44:54;68631.03;;;-148.95;66.74
38558;BME280;24333;42.626;23.308;2023-07-31T07:47:20;68643.47;;;-148.95;64.14
38558;BME280;24333;42.626;23.308;2023-07-31T07:50:08;68616.50;;;-148.95;64.76
38558;BME280;24333;42.626;23.308;2023-07-31T07:53:05;68647.63;;;-148.95;63.77
38558;BME280;24333;42.626;23.308;2023-07-31T07:55:31;68662.13;;;-148.95;65.66
38558;BME280;24333;42.626;23.308;2023-07-31T07:58:00;68651.75;;;-148.95;66.31
38558;BME280;24333;42.626;23.308;2023-07-31T08:00:27;68633.09;;;-148.95;65.30
38558;BME280;24333;42.626;23.308;2023-07-31T08:03:03;68616.50;;;-148.95;64.87
38558;BME280;24333;42.626;23.308;2023-07-31T08:06:32;68608.22;;;-148.95;63.82
38558;BME280;24333;42.626;23.308;2023-07-31T08:09:06;68608.22;;;-148.95;62.72
38558;BME280;24333;42.626;23.308;2023-07-31T08:11:35;68637.25;;;-148.95;64.03
38558;BME280;24333;42.626;23.308;2023-07-31T08:14:00;68658.00;;;-148.95;66.01
38558;BME280;24333;42.626;23.308;2023-07-31T08:16:29;68633.09;;;-148.95;66.03
38558;BME280;24333;42.626;23.308;2023-07-31T08:18:55;68614.44;;;-148.95;64.88
38558;BME280;24333;42.626;23.308;2023-07-31T08:24:31;68616.50;;;-148.95;61.58
38558;BME280;24333;42.626;23.308;2023-07-31T08:27:08;68610.28;;;-148.95;61.46
38558;BME280;24333;42.626;23.308;2023-07-31T08:29:39;68608.22;;;-148.95;61.44
38558;BME280;24333;42.626;23.308;2023-07-31T08:32:42;68606.16;;;-148.95;60.91
38558;BME280;24333;42.626;23.308;2023-07-31T08:37:35;68608.22;;;-148.95;61.04
38558;BME280;24333;42.626;23.308;2023-07-31T08:40:05;68599.91;;;-148.95;60.87
38558;BME280;24333;42.626;23.308;2023-07-31T08:42:32;68587.47;;;-148.95;59.97
38558;BME280;24333;42.626;23.308;2023-07-31T08:44:59;68577.13;;;-148.95;58.35
38558;BME280;24333;42.626;23.308;2023-07-31T08:47:25;68550.16;;;-148.95;57.56
38558;BME280;24333;42.626;23.308;2023-07-31T08:49:52;68533.56;;;-148.95;56.46
38558;BME280;24333;42.626;23.308;2023-07-31T08:52:19;68519.06;;;-148.95;56.67
38558;BME280;24333;42.626;23.308;2023-07-31T08:54:44;68533.56;;;-148.95;54.97
38558;BME280;24333;42.626;23.308;2023-07-31T08:57:11;68543.94;;;-148.95;55.75
38558;BME280;24333;42.626;23.308;2023-07-31T08:59:37;68575.03;;;-148.95;57.22
38558;BME280;24333;42.626;23.308;2023-07-31T09:02:06;68570.88;;;-148.95;57.14
38558;BME280;24333;42.626;23.308;2023-07-31T09:04:33;68587.47;;;-148.95;56.10
38558;BME280;24333;42.626;23.308;2023-07-31T09:07:03;68583.34;;;-148.95;57.46
38558;BME280;24333;42.626;23.308;2023-07-31T09:09:30;68560.53;;;-148.95;58.83
38558;BME280;24333;42.626;23.308;2023-07-31T09:11:57;68521.13;;;-148.95;56.63
38558;BME280;24333;42.626;23.308;2023-07-31T09:14:24;68494.16;;;-148.95;54.11
38558;BME280;24333;42.626;23.308;2023-07-31T09:16:57;68471.34;;;-148.95;52.53
38558;BME280;24333;42.626;23.308;2023-07-31T09:19:35;68463.06;;;-148.95;50.98
38558;BME280;24333;42.626;23.308;2023-07-31T09:22:03;68475.50;;;-148.95;51.19
38558;BME280;24333;42.626;23.308;2023-07-31T09:24:48;68481.72;;;-148.95;51.58
38558;BME280;24333;42.626;23.308;2023-07-31T09:27:13;68481.72;;;-148.95;51.84
38558;BME280;24333;42.626;23.308;2023-07-31T09:29:39;68461.00;;;-148.95;51.87
38558;BME280;24333;42.626;23.308;2023-07-31T09:32:04;68446.47;;;-148.95;51.18
38558;BME280;24333;42.626;23.308;2023-07-31T09:34:37;68421.59;;;-148.95;51.26
38558;BME280;24333;42.626;23.308;2023-07-31T09:37:08;68440.25;;;-148.95;50.01
38558;BME280;24333;42.626;23.308;2023-07-31T09:39:46;68423.66;;;-148.95;51.32
38558;BME280;24333;42.626;23.308;2023-07-31T09:42:12;68417.44;;;-148.95;50.35
38558;BME280;24333;42.626;23.308;2023-07-31T09:44:48;68394.63;;;-148.95;49.92
38558;BME280;24333;42.626;23.308;2023-07-31T09:47:21;68382.19;;;-148.95;49.36
38558;BME280;24333;42.626;23.308;2023-07-31T09:49:49;68355.25;;;-148.95;49.56
38558;BME280;24333;42.626;23.308;2023-07-31T09:52:14;68344.88;;;-148.95;47.11
38558;BME280;24333;42.626;23.308;2023-07-31T11:00:28;68069.09;;;-148.95;37.54
38558;BME280;24333;42.626;23.308;2023-07-31T11:05:41;68035.94;;;-148.95;37.78
38558;BME280;24333;42.626;23.308;2023-07-31T11:10:39;67936.41;;;-148.95;35.21
38558;BME280;24333;42.626;23.308;2023-07-31T17:24:13;68500.38;;;-148.95;48.42
38558;BME280;24333;42.626;23.308;2023-07-31T17:26:39;68500.38;;;-148.95;49.26
38558;BME280;24333;42.626;23.308;2023-07-31T17:29:04;68502.47;;;-148.95;49.17
38558;BME280;24333;42.626;23.308;2023-07-31T17:57:22;68591.63;;;-148.95;52.81
38558;BME280;24333;42.626;23.308;2023-07-31T17:59:48;68608.22;;;-148.95;53.19
38558;BME280;24333;42.626;23.308;2023-07-31T18:02:14;68612.38;;;-148.95;53.48
38558;BME280;24333;42.626;23.308;2023-07-31T18:04:39;68626.88;;;-148.95;53.81
38558;BME280;24333;42.626;23.308;2023-07-31T18:07:05;68631.03;;;-148.95;54.43
38558;BME280;24333;42.626;23.308;2023-07-31T18:09:31;68639.31;;;-148.95;54.91
38558;BME280;24333;42.626;23.308;2023-07-31T18:11:59;68647.63;;;-148.95;55.32
38558;BME280;24333;42.626;23.308;2023-07-31T18:14:25;68645.53;;;-148.95;55.24
38558;BME280;24333;42.626;23.308;2023-07-31T18:16:53;68649.69;;;-148.95;55.26
38558;BME280;24333;42.626;23.308;2023-07-31T18:19:19;68645.53;;;-148.95;56.07
38558;BME280;24333;42.626;23.308;2023-07-31T18:21:44;68651.75;;;-148.95;55.68
38558;BME280;24333;42.626;23.308;2023-07-31T18:24:10;68662.13;;;-148.95;56.34
38558;BME280;24333;42.626;23.308;2023-07-31T18:26:39;68668.34;;;-148.95;56.16
38558;BME280;24333;42.626;23.308;2023-07-31T18:29:05;68670.44;;;-148.95;57.77
38558;BME280;24333;42.626;23.308;2023-07-31T18:31:31;68689.09;;;-148.95;57.86
38558;BME280;24333;42.626;23.308;2023-07-31T18:33:57;68691.16;;;-148.95;57.85
38558;BME280;24333;42.626;23.308;2023-07-31T18:36:23;68707.75;;;-148.95;57.14
38558;BME280;24333;42.626;23.308;2023-07-31T18:38:48;68716.06;;;-148.95;57.35
38558;BME280;24333;42.626;23.308;2023-07-31T18:41:14;68726.41;;;-148.95;58.09
38558;BME280;24333;42.626;23.308;2023-07-31T18:43:40;68724.34;;;-148.95;58.95
38558;BME280;24333;42.626;23.308;2023-07-31T18:46:08;68734.72;;;-148.95;58.80
38558;BME280;24333;42.626;23.308;2023-07-31T18:48:34;68736.78;;;-148.95;59.11
38558;BME280;24333;42.626;23.308;2023-07-31T18:50:59;68736.78;;;-148.95;57.92
38558;BME280;24333;42.626;23.308;2023-07-31T18:53:25;68738.88;;;-148.95;57.59
38558;BME280;24333;42.626;23.308;2023-07-31T18:55:51;68740.94;;;-148.95;57.89
38558;BME280;24333;42.626;23.308;2023-07-31T18:58:23;68740.94;;;-148.95;58.54
38558;BME280;24333;42.626;23.308;2023-07-31T19:00:48;68743.00;;;-148.95;58.65
38558;BME280;24333;42.626;23.308;2023-07-31T19:03:13;68753.38;;;-148.95;58.89
38558;BME280;24333;42.626;23.308;2023-07-31T19:05:39;68763.75;;;-148.95;59.57
38558;BME280;24333;42.626;23.308;2023-07-31T19:52:50;68769.97;;;-148.95;64.73
38558;BME280;24333;42.626;23.308;2023-07-31T19:55:16;68767.91;;;-148.95;64.68
38558;BME280;24333;42.626;23.308;2023-07-31T19:57:41;68761.69;;;-148.95;65.18
38558;BME280;24333;42.626;23.308;2023-07-31T20:00:07;68769.97;;;-148.95;64.84
38558;BME280;24333;42.626;23.308;2023-07-31T20:02:33;68769.97;;;-148.95;65.28
38558;BME280;24333;42.626;23.308;2023-07-31T20:04:59;68772.03;;;-148.95;65.08
38558;BME280;24333;42.626;23.308;2023-07-31T20:07:27;68765.81;;;-148.95;64.91
38558;BME280;24333;42.626;23.308;2023-07-31T20:09:53;68767.91;;;-148.95;66.02
38558;BME280;24333;42.626;23.308;2023-07-31T20:12:27;68774.13;;;-148.95;65.63
38558;BME280;24333;42.626;23.308;2023-07-31T20:14:54;68772.03;;;-148.95;65.69
38558;BME280;24333;42.626;23.308;2023-07-31T20:17:21;68769.97;;;-148.95;66.35
38558;BME280;24333;42.626;23.308;2023-07-31T20:19:47;68769.97;;;-148.95;66.77
38558;BME280;24333;42.626;23.308;2023-07-31T20:22:15;68769.97;;;-148.95;67.25
38558;BME280;24333;42.626;23.308;2023-07-31T20:24:41;68765.81;;;-148.95;67.46
38558;BME280;24333;42.626;23.308;2023-07-31T20:27:07;68776.19;;;-148.95;67.98
38558;BME280;24333;42.626;23.308;2023-07-31T20:29:33;68788.63;;;-148.95;68.73
38558;BME280;24333;42.626;23.308;2023-07-31T20:31:58;68790.72;;;-148.95;68.89
38558;BME280;24333;42.626;23.308;2023-07-31T20:34:24;68799.00;;;-148.95;69.84
38558;BME280;24333;42.626;23.308;2023-07-31T20:36:49;68813.53;;;-148.95;70.35
38558;BME280;24333;42.626;23.308;2023-07-31T20:39:14;68811.44;;;-148.95;70.81
38558;BME280;24333;42.626;23.308;2023-07-31T20:41:40;68815.59;;;-148.95;71.32
38558;BME280;24333;42.626;23.308;2023-07-31T20:44:05;68819.75;;;-148.95;71.25
38558;BME280;24333;42.626;23.308;2023-07-31T20:46:31;68819.75;;;-148.95;71.88
38558;BME280;24333;42.626;23.308;2023-07-31T20:48:56;68821.81;;;-148.95;71.93
38558;BME280;24333;42.626;23.308;2023-07-31T20:51:22;68828.03;;;-148.95;72.70
38558;BME280;24333;42.626;23.308;2023-07-31T20:53:47;68832.19;;;-148.95;72.91
38558;BME280;24333;42.626;23.308;2023-07-31T20:56:16;68842.56;;;-148.95;72.53
38558;BME280;24333;42.626;23.308;2023-07-31T20:58:42;68850.84;;;-148.95;73.11
38558;BME280;24333;42.626;23.308;2023-07-31T21:01:07;68848.78;;;-148.95;73.88
38558;BME280;24333;42.626;23.308;2023-07-31T21:03:33;68852.91;;;-148.95;73.23
38558;BME280;24333;42.626;23.308;2023-07-31T21:05:59;68846.69;;;-148.95;73.44
38558;BME280;24333;42.626;23.308;2023-07-31T21:08:25;68836.34;;;-148.95;73.18
38558;BME280;24333;42.626;23.308;2023-07-31T21:10:51;68836.34;;;-148.95;72.23
38558;BME280;24333;42.626;23.308;2023-07-31T21:13:17;68840.47;;;-148.95;72.69
38558;BME280;24333;42.626;23.308;2023-07-31T21:15:43;68844.63;;;-148.95;73.02
38558;BME280;24333;42.626;23.308;2023-07-31T21:18:08;68840.47;;;-148.95;72.94
38558;BME280;24333;42.626;23.308;2023-07-31T21:20:35;68840.47;;;-148.95;72.80
38558;BME280;24333;42.626;23.308;2023-07-31T21:23:01;68832.19;;;-148.95;72.33
38558;BME280;24333;42.626;23.308;2023-07-31T21:25:34;68836.34;;;-148.95;71.80
38558;BME280;24333;42.626;23.308;2023-07-31T21:28:00;68832.19;;;-148.95;72.13
38558;BME280;24333;42.626;23.308;2023-07-31T21:30:26;68828.03;;;-148.95;72.18
38558;BME280;24333;42.626;23.308;2023-07-31T21:32:51;68838.41;;;-148.95;71.94
38558;BME280;24333;42.626;23.308;2023-07-31T21:35:17;68838.41;;;-148.95;72.41
38558;BME280;24333;42.626;23.308;2023-07-31T21:37:43;68840.47;;;-148.95;72.19
38558;BME280;24333;42.626;23.308;2023-07-31T21:40:09;68836.34;;;-148.95;72.64
38558;BME280;24333;42.626;23.308;2023-07-31T21:42:35;68846.69;;;-148.95;72.59
38558;BME280;24333;42.626;23.308;2023-07-31T21:45:04;68840.47;;;-148.95;72.80
38558;BME280;24333;42.626;23.308;2023-07-31T21:47:29;68836.34;;;-148.95;72.49
38558;BME280;24333;42.626;23.308;2023-07-31T22:57:26;68890.25;;;-148.95;75.46
38558;BME280;24333;42.626;23.308;2023-07-31T22:59:55;68884.03;;;-148.95;75.62
38558;BME280;24333;42.626;23.308;2023-07-31T23:02:22;68873.66;;;-148.95;76.66
38558;BME280;24333;42.626;23.308;2023-07-31T23:04:48;68859.16;;;-148.95;76.65
38558;BME280;24333;42.626;23.308;2023-07-31T23:07:21;68855.00;;;-148.95;76.47
38558;BME280;24333;42.626;23.308;2023-07-31T23:10:15;68850.84;;;-148.95;75.82
38558;BME280;24333;42.626;23.308;2023-07-31T23:13:03;68855.00;;;-148.95;77.67
38558;BME280;24333;42.626;23.308;2023-07-31T23:15:30;68863.28;;;-148.95;76.58
38558;BME280;24333;42.626;23.308;2023-07-31T23:18:01;68861.22;;;-148.95;77.59
38558;BME280;24333;42.626;23.308;2023-07-31T23:20:27;68873.66;;;-148.95;77.78
38558;BME280;24333;42.626;23.308;2023-07-31T23:22:58;68879.88;;;-148.95;78.54
38558;BME280;24333;42.626;23.308;2023-07-31T23:25:25;68884.03;;;-148.95;79.38
38558;BME280;24333;42.626;23.308;2023-07-31T23:27:51;68888.19;;;-148.95;81.22
38558;BME280;24333;42.626;23.308;2023-07-31T23:30:16;68890.25;;;-148.95;81.49
38558;BME280;24333;42.626;23.308;2023-07-31T23:32:41;68898.53;;;-148.95;80.97
38558;BME280;24333;42.626;23.308;2023-07-31T23:35:07;68906.84;;;-148.95;80.44
38558;BME280;24333;42.626;23.308;2023-07-31T23:37:33;68908.91;;;-148.95;81.46
38558;BME280;24333;42.626;23.308;2023-07-31T23:39:58;68919.28;;;-148.95;82.42
38558;BME280;24333;42.626;23.308;2023-07-31T23:42:24;68921.34;;;-148.95;82.72
38558;BME280;24333;42.626;23.308;2023-07-31T23:44:49;68927.56;;;-148.95;82.79
38558;BME280;24333;42.626;23.308;2023-07-31T23:47:15;68925.50;;;-148.95;83.68
38558;BME280;24333;42.626;23.308;2023-07-31T23:49:40;68937.94;;;-148.95;84.59
38558;BME280;24333;42.626;23.308;2023-07-31T23:52:06;68946.25;;;-148.95;84.75
38558;BME280;24333;42.626;23.308;2023-07-31T23:54:32;68935.88;;;-148.95;85.65
38558;BME280;24333;42.626;23.308;2023-07-31T23:56:58;68935.88;;;-148.95;85.13
38558;BME280;24333;42.626;23.308;2023-07-31T23:59:23;68937.94;;;-148.95;85.73
